Tiempo atmosférico en la estación meteorológica de Aguilar de la Frontera, Córdoba (305 m.)



Fecha
DESCASC
Temp. máxima en grados centígrados (hora)
DESCASC
Temp. mínima en grados centígrados (hora)
DESCASC
Temp. media en grados centígrados
DESCASC
Racha de viento máxima en m/sg (hora)
DESCASC
Velocidad máxima media en intervalos de 10 minutos(hora)
DESCASC
Precipitaciones diarias en mm
DESCASC
Precipitaciones de 00:00 a 06:00 en mm
DESCASC
Precipitaciones de 06:00 a 12:00 en mm
DESCASC
Precipitaciones de 12:00 a 18:00 en mm
DESCASC
Precipitaciones de 18:00 a 24:00 en mm
DESCASC
18-01-2018 15.5 (13:50) 3.3 (06:50) 9.4 6.11 (09:40) 3.89 (09:50) 0 0 0 0 0
17-01-2018 16.6 (15:30) 2.7 (08:30) 9.7 10 (16:40) 6.11 (16:40) 0 0 0 0 0
16-01-2018 14.2 (15:20) 1.1 (05:50) 7.6 5.56 (15:30) 3.33 (01:20) 0 0 0 0 0
15-01-2018 10.9 (15:30) 1.3 (08:20) 6.1 9.17 (13:40) 5.28 (14:10) 0.4 0.2 0 0.2 0
14-01-2018 8.3 (15:40) 3.7 (00:00) 6 8.06 (19:00) 4.17 (19:00) 5.4 0 1.8 0.2 3.4
13-01-2018 10 (13:30) 4.6 (00:00) 7.3 6.94 (16:50) 4.17 (07:50) 3.8 0 0 3.8 0
12-01-2018 12.7 (15:40) 1.3 (00:00) 7 5 (22:50) 3.89 (22:50) 0.2 0.2 0 0 0
11-01-2018 12 (16:30) 3.4 (00:00) 7.7 11.11 (16:00) 7.78 (16:30) 0.4 0 0 0.2 0.2
10-01-2018 13.1 (16:10) 9 (00:00) 11.1 12.78 (20:30) 8.06 (21:40) 7.8 7.8 0 0 0
09-01-2018 9.9 (23:50) 2.7 (00:00) 6.3 7.78 (23:40) 5 (23:10) 2 0 0.2 0.2 1.6
08-01-2018 8.9 (15:30) 3.5 (00:00) 6.2 7.78 (11:50) 5 (12:00) 2.2 1.6 0.4 0.2 0
07-01-2018 5.4 (15:50) 1.1 (00:00) 3.3 5 (10:50) 3.61 (10:50) 1.4 0 0.2 0.2 1
06-01-2018 12 (00:40) 3.8 (00:00) 7.9 11.39 (17:10) 8.06 (17:10) 36.2 22 12.6 1.6 0
05-01-2018 13.8 (17:20) 10.9 (00:00) 12.3 8.33 (21:50) 5 (21:10) 0.2 0 0 0 0.2
04-01-2018 13.2 (14:10) 7.5 (00:00) 10.3 6.11 (02:20) 3.61 (02:10) 0 0 0 0 0
03-01-2018 14.2 (15:10) 6.8 (00:00) 10.5 6.39 (16:30) 4.17 (16:30) 0 0 0 0 0
02-01-2018 13.7 (15:00) 2.2 (00:00) 7.9 7.22 (16:00) 3.61 (15:50) 0 0 0 0 0
01-01-2018 14.4 (15:50) 2.6 (00:00) 8.5 5.56 (16:20) 3.89 (16:20) 0 0 0 0 0
31-12-2017 14.2 (13:50) 8.4 (00:00) 11.3 8.61 (21:00) 5 (21:40) 0 0 0 0 0
30-12-2017 18.7 (15:50) 8 (00:00) 13.4 4.72 (14:10) 3.61 (22:40) 0 0 0 0 0
29-12-2017 15.1 (17:20) 12.1 (00:00) 13.6 7.78 (00:20) 5 (02:20) 0.2 0 0 0.2 0
28-12-2017 15.3 (16:20) 9.7 (00:00) 12.5 10.83 (11:40) 7.5 (11:40) 0 0 0 0 0
27-12-2017 13.8 (14:20) 9.2 (00:00) 11.5 18.33 (06:00) 10.83 (06:10) 5.8 0.8 4.8 0.2 0
26-12-2017 12.1 (15:50) 8.4 (00:00) 10.3 8.61 (07:50) 5 (08:10) 5.8 0.6 5.2 0 0
25-12-2017 13.2 (12:00) 3.7 (00:00) 8.4 6.39 (11:50) 4.72 (11:50) 5.4 0 0 1 4.4
24-12-2017 17.4 (15:10) 4.4 (00:00) 10.9 5 (11:40) 3.61 (21:30) 0 0 0 0 0

Gráficas

Temp. máximas Temp. mínimas Temp. medias Precipitaciones Rachas de viento máximas Velocidades máximas media en intervalos de 10 minutos

Datos horarios

Fecha y hora oficial Temperatura (ºC) Velocidad del viento (km/h) Dirección del viento Racha (km/h) Dirección de racha Precipitación (mm) Presión (hPa) Tendencia (hPa) Humedad (%)
2018-01-22 23:00:00 6.6 0 Calma 5 Sudeste 0 -- -- 93
2018-01-22 22:00:00 7.8 5 Sudeste 8 Sudeste 0 -- -- 92
2018-01-22 21:00:00 8.6 6 Este 8 Sudeste 0 -- -- 91
2018-01-22 20:00:00 10.8 4 Este 5 Este 0 -- -- 82
2018-01-22 19:00:00 13.9 0 Calma 9 Oeste 0 -- -- 73
2018-01-22 18:00:00 17.3 5 Oeste 9 Oeste 0 -- -- 60
2018-01-22 17:00:00 17.8 6 Oeste 12 Oeste 0 -- -- 58
2018-01-22 16:00:00 17.7 5 Noroeste 15 Noroeste 0 -- -- 60
2018-01-22 15:00:00 17 6 Noroeste 13 Noroeste 0 -- -- 66
2018-01-22 14:00:00 16 6 Norte 12 Noroeste 0 -- -- 68
2018-01-22 13:00:00 14.8 4 Oeste 7 Oeste 0 -- -- 73
2018-01-22 12:00:00 12.2 3 Noroeste 5 Oeste 0 -- -- 85
2018-01-22 11:00:00 9.9 4 Noroeste 10 Sudeste 0 -- -- 94
2018-01-22 10:00:00 7.6 2 Sudeste 7 Sudeste 0.2 -- -- 100
2018-01-22 09:00:00 4 3 Sudeste 8 Sudeste 0 -- -- 99
2018-01-22 08:00:00 4.3 4 Este 8 Este 0 -- -- 98
2018-01-22 07:00:00 4.8 5 Este 9 Sudeste 0 -- -- 98
2018-01-22 06:00:00 4.8 3 Este 7 Este 0 -- -- 97
2018-01-22 05:00:00 5.1 4 Este 6 Este 0 -- -- 98
2018-01-22 04:00:00 5.8 3 Sudeste 10 Sudeste 0 -- -- 98
2018-01-22 03:00:00 6.1 4 Sudeste 14 Sudeste 0 -- -- 97
2018-01-22 02:00:00 6.1 6 Sudeste 15 Sudeste 0 -- -- 98
2018-01-22 01:00:00 6.1 5 Sudeste 9 Sudeste 0 -- -- 97
2018-01-22 00:00:00 6.9 0 Calma 14 Sudeste 0 -- -- 93
2018-01-21 23:00:00 7.3 5 Este 9 Este 0 -- -- 92
2018-01-21 22:00:00 7.8 0 Calma 8 Este 0 -- -- 90
2018-01-21 21:00:00 8.9 2 Nordeste 4 Este 0 -- -- 88
2018-01-21 20:00:00 9.9 0 Calma 5 Oeste 0 -- -- 83
2018-01-21 19:00:00 12.1 3 Oeste 11 Oeste 0 -- -- 73
2018-01-21 18:00:00 14.5 9 Oeste 13 Oeste 0 -- -- 64
2018-01-21 17:00:00 15.8 6 Noroeste 13 Noroeste 0 -- -- 56
2018-01-21 16:00:00 15.3 6 Noroeste 14 Noroeste 0 -- -- 60
2018-01-21 15:00:00 15 8 Noroeste 14 Noroeste 0 -- -- 64
2018-01-21 14:00:00 14 9 Noroeste 18 Noroeste 0 -- -- 66
2018-01-21 13:00:00 12.2 11 Norte 18 Norte 0 -- -- 72
2018-01-21 12:00:00 10.8 8 Noroeste 15 Norte 0 -- -- 82
2018-01-21 11:00:00 9.3 5 Norte 9 Norte 0 -- -- 90
2018-01-21 10:00:00 6.4 0 Calma 7 Este 0 -- -- 98
2018-01-21 09:00:00 4.1 4 Este 9 Sudeste 0 -- -- 97
2018-01-21 08:00:00 3.8 3 Este 6 Este 0 -- -- 97
2018-01-21 07:00:00 4.5 2 Este 12 Sudeste 0 -- -- 98
2018-01-21 06:00:00 3.6 0 Calma 9 Este 0 -- -- 97
2018-01-21 05:00:00 3.9 0 Calma 9 Este 0 -- -- 96
2018-01-21 04:00:00 5.4 4 Sudeste 12 Este 0 -- -- 94
2018-01-21 03:00:00 5.6 6 Sudeste 11 Sudeste 0 -- -- 97
2018-01-21 02:00:00 5.6 8 Sudeste 10 Sudeste 0 -- -- 96
2018-01-21 01:00:00 5.6 4 Sudeste 10 Sudeste 0 -- -- 94
2018-01-21 00:00:00 7 3 Sudeste 13 Sudeste 0 -- -- 93
2018-01-20 23:00:00 6.1 4 Sudeste 7 Sudeste 0 -- -- 94
2018-01-20 22:00:00 7 0 Calma 10 Este 0 -- -- 92
2018-01-20 21:00:00 8 3 Sudeste 8 Este 0 -- -- 88
2018-01-20 20:00:00 10 0 Calma 5 Sur 0 -- -- 81
2018-01-20 19:00:00 12 4 Sudoeste 9 Sudoeste 0 -- -- 76
2018-01-20 18:00:00 13.8 6 Sudoeste 12 Sudoeste 0 -- -- 66
2018-01-20 17:00:00 15 7 Sudoeste 13 Oeste 0 -- -- 65
2018-01-20 16:00:00 15.3 6 Oeste 11 Oeste 0 -- -- 65
2018-01-20 15:00:00 14.6 8 Oeste 13 Oeste 0 -- -- 70
2018-01-20 14:00:00 14.4 6 Oeste 11 Oeste 0 -- -- 68
2018-01-20 13:00:00 13.3 4 Oeste 10 Oeste 0 -- -- 72
2018-01-20 12:00:00 11.7 4 Oeste 9 Sudoeste 0 -- -- 81
2018-01-20 11:00:00 9.5 4 Sudoeste 7 Sudoeste 0 -- -- 95
2018-01-20 10:00:00 6.4 0 Calma 7 Este 0 -- -- 98
2018-01-20 09:00:00 4.2 0 Calma 8 Norte 0 -- -- 98
2018-01-20 08:00:00 3.1 5 Este 8 Este 0 -- -- 97
2018-01-20 07:00:00 3.8 2 Sudeste 8 Este 0 -- -- 95
2018-01-20 06:00:00 5.2 0 Calma 11 Sudeste 0 -- -- 96
2018-01-20 05:00:00 6.1 11 Sudeste 13 Sudeste 0 -- -- 96
2018-01-20 04:00:00 4.8 4 Este 10 Sudeste 0 -- -- 96
2018-01-20 03:00:00 6.5 10 Sudeste 15 Sudeste 0 -- -- 94
2018-01-20 02:00:00 5.6 2 Este 9 Sudeste 0 -- -- 95
2018-01-20 01:00:00 5.3 0 Calma 6 Sudeste 0 -- -- 94
2018-01-20 00:00:00 6.1 4 Sudeste 9 Sudeste 0 -- -- 94
2018-01-19 23:00:00 6.7 2 Sudeste 10 Sudeste 0 -- -- 93
2018-01-19 22:00:00 6.7 2 Este 5 Sur 0 -- -- 91
2018-01-19 21:00:00 8.3 2 Sudeste 5 Este 0 -- -- 85
2018-01-19 20:00:00 9.4 3 Este 5 Sudeste 0 -- -- 83
2018-01-19 19:00:00 12.2 3 Sur 7 Oeste 0 -- -- 71
2018-01-19 18:00:00 14.7 6 Oeste 11 Sudoeste 0 -- -- 62
2018-01-19 17:00:00 16 6 Oeste 14 Oeste 0 -- -- 57
2018-01-19 16:00:00 16 5 Noroeste 14 Noroeste 0 -- -- 55
2018-01-19 15:00:00 15.3 9 Noroeste 14 Noroeste 0 -- -- 62
2018-01-19 14:00:00 14.8 5 Oeste 13 Oeste 0 -- -- 63
2018-01-19 13:00:00 13.6 5 Oeste 9 Oeste 0 -- -- 68
2018-01-19 12:00:00 12.4 0 Calma 8 Sur 0 -- -- 69
2018-01-19 11:00:00 9.4 2 Este 5 Sudeste 0 -- -- 85
2018-01-19 10:00:00 7.2 0 Calma 4 Nordeste 0 -- -- 91
2018-01-19 09:00:00 6.7 0 Calma 11 Sudeste 0 -- -- 91
2018-01-19 08:00:00 6.6 0 Calma 8 Sudeste 0 -- -- 90
2018-01-19 07:00:00 6.9 5 Este 13 Sudeste 0 -- -- 88
2018-01-19 06:00:00 6.1 0 Calma 6 Este 0 -- -- 90
2018-01-19 05:00:00 6.9 5 Este 10 Sudeste 0 -- -- 89
2018-01-19 04:00:00 7.4 2 Este 12 Este 0 -- -- 88
2018-01-19 03:00:00 7.8 6 Este 16 Sudeste 0 -- -- 88
2018-01-19 02:00:00 6.9 5 Este 9 Sudeste 0 -- -- 90
2018-01-19 01:00:00 7.6 0 Calma 10 Sudeste 0 -- -- 90
2018-01-19 00:00:00 7.5 3 Este 8 Sudeste 0 -- -- 89
2018-01-18 23:00:00 8 0 Calma 7 Sudeste 0 -- -- 85
2018-01-18 22:00:00 8.4 4 Este 8 Este 0 -- -- 83
2018-01-18 21:00:00 8.8 3 Este 5 Este 0 -- -- 81
2018-01-18 20:00:00 9.1 3 Nordeste 6 Norte 0 -- -- 84
2018-01-18 19:00:00 10.7 3 Este 6 Este 0 -- -- 78
2018-01-18 18:00:00 12.4 2 Este 8 Norte 0 -- -- 72
2018-01-18 17:00:00 13.6 4 Nordeste 8 Norte 0 -- -- 63
2018-01-18 16:00:00 14.2 5 Norte 12 Noroeste 0 -- -- 59
2018-01-18 15:00:00 15 3 Norte 10 Este 0 -- -- 55
2018-01-18 14:00:00 15.4 4 Sudeste 14 Este 0 -- -- 53
2018-01-18 13:00:00 14.9 4 Este 12 Nordeste 0 -- -- 54
2018-01-18 12:00:00 12.3 4 Este 10 Este 0 -- -- 62
2018-01-18 11:00:00 11.3 4 Nordeste 13 Este 0 -- -- 64
2018-01-18 10:00:00 9.8 9 Este 22 Este 0 -- -- 70
2018-01-18 09:00:00 4.7 9 Sudeste 15 Sudeste 0 -- -- 91
2018-01-18 08:00:00 4.3 5 Sudeste 13 Sudeste 0 -- -- 94
2018-01-18 07:00:00 4 10 Sudeste 13 Sudeste 0 -- -- 94
2018-01-18 06:00:00 3.8 4 Nordeste 8 Sudeste 0 -- -- 92
2018-01-18 05:00:00 4.8 3 Sudeste 9 Sudeste 0 -- -- 89
2018-01-18 04:00:00 4 4 Este 9 Nordeste 0 -- -- 90
2018-01-18 03:00:00 4.6 4 Nordeste 8 Este 0 -- -- 89
2018-01-18 02:00:00 5.2 4 Este 8 Este 0 -- -- 86
2018-01-18 01:00:00 6.9 3 Este 9 Este 0 -- -- 80
2018-01-18 00:00:00 7.8 3 Este 10 Este 0 -- -- 76
2018-01-17 23:00:00 9.4 8 Nordeste 15 Nordeste 0 -- -- 69
2018-01-17 22:00:00 11.9 8 Este 19 Nordeste 0 -- -- 61
2018-01-17 21:00:00 12.9 14 Nordeste 34 Nordeste 0 -- -- 58
2018-01-17 20:00:00 14.6 17 Nordeste 30 Nordeste 0 -- -- 57
2018-01-17 19:00:00 15.1 19 Nordeste 32 Nordeste 0 -- -- 59
2018-01-17 18:00:00 15.4 17 Nordeste 31 Nordeste 0 -- -- 61
2018-01-17 17:00:00 16 17 Nordeste 36 Norte 0 -- -- 58
2018-01-17 16:00:00 16.5 20 Nordeste 31 Norte 0 -- -- 56
2018-01-17 15:00:00 16.2 14 Norte 27 Norte 0 -- -- 57
2018-01-17 14:00:00 13.9 9 Norte 23 Norte 0 -- -- 65
2018-01-17 13:00:00 13.2 9 Norte 17 Nordeste 0 -- -- 67
2018-01-17 12:00:00 11.4 12 Nordeste 19 Norte 0 -- -- 71
2018-01-17 11:00:00 9.3 2 Sudoeste 5 Oeste 0 -- -- 78
2018-01-17 10:00:00 5.8 0 Calma 6 Norte 0 -- -- 95
2018-01-17 09:00:00 3 4 Este 7 Norte 0 -- -- 97
2018-01-17 08:00:00 3.2 0 Calma 9 Sudeste 0 -- -- 95
2018-01-17 07:00:00 4.1 6 Sudeste 13 Este 0 -- -- 93
2018-01-17 06:00:00 5.4 6 Nordeste 14 Nordeste 0 -- -- 95
2018-01-17 05:00:00 5.8 7 Nordeste 16 Nordeste 0 -- -- 96
2018-01-17 04:00:00 4.8 4 Nordeste 8 Este 0 -- -- 93
2018-01-17 03:00:00 3.2 2 Este 7 Este 0 -- -- 94
2018-01-17 02:00:00 4.4 4 Este 6 Sudeste 0 -- -- 91
2018-01-17 01:00:00 5.4 0 Calma 5 Noroeste 0 -- -- 90
2018-01-17 00:00:00 5.5 2 Este 5 Este 0 -- -- 87
2018-01-16 23:00:00 6.7 0 Calma 3 Sudeste 0 -- -- 81
2018-01-16 22:00:00 7.1 0 Calma 5 Este 0 -- -- 79
2018-01-16 21:00:00 7.7 0 Calma 4 Nordeste 0 -- -- 77
2018-01-16 20:00:00 8.6 2 Nordeste 5 Norte 0 -- -- 77
2018-01-16 19:00:00 10.4 5 Este 9 Noroeste 0 -- -- 69
2018-01-16 18:00:00 12.9 5 Noroeste 13 Norte 0 -- -- 60
2018-01-16 17:00:00 13.4 10 Norte 18 Norte 0 -- -- 56
2018-01-16 16:00:00 13.8 8 Norte 20 Norte 0 -- -- 53
2018-01-16 15:00:00 14.1 9 Norte 19 Norte 0 -- -- 56
2018-01-16 14:00:00 13.1 8 Norte 15 Norte 0 -- -- 59
2018-01-16 13:00:00 11.7 3 Norte 9 Noroeste 0 -- -- 65
2018-01-16 12:00:00 9.6 3 Noroeste 7 Noroeste 0 -- -- 69
2018-01-16 11:00:00 6.8 2 Oeste 5 Norte 0 -- -- 85
2018-01-16 10:00:00 5.3 0 Calma 10 Este 0 -- -- 87
2018-01-16 09:00:00 2.2 2 Este 12 Sudeste 0 -- -- 95
2018-01-16 08:00:00 1.9 0 Calma 5 Este 0 -- -- 93
2018-01-16 07:00:00 2.5 3 Este 12 Este 0 -- -- 95
2018-01-16 06:00:00 1.2 8 Sudeste 10 Sudeste 0 -- -- 96
2018-01-16 05:00:00 2.2 2 Sudeste 8 Nordeste 0 -- -- 93
2018-01-16 04:00:00 3.3 2 Norte 12 Sudeste 0 -- -- 94
2018-01-16 03:00:00 3.2 6 Este 13 Sudeste 0 -- -- 93
2018-01-16 02:00:00 3.3 5 Nordeste 14 Sudeste 0 -- -- 93
2018-01-16 01:00:00 2.7 10 Sudeste 13 Sudeste 0 -- -- 93
2018-01-16 00:00:00 3.7 6 Sudeste 10 Sudeste 0 -- -- 91
2018-01-15 23:00:00 4.6 0 Calma 9 Noroeste 0 -- -- 87
2018-01-15 22:00:00 4.9 3 Este 12 Este 0 -- -- 88
2018-01-15 21:00:00 6 0 Calma 15 Nordeste 0 -- -- 83
2018-01-15 20:00:00 5.7 10 Nordeste 12 Nordeste 0 -- -- 86
2018-01-15 19:00:00 7.4 5 Norte 14 Nordeste 0 -- -- 79
2018-01-15 18:00:00 9.6 10 Nordeste 23 Nordeste 0 -- -- 71
2018-01-15 17:00:00 10.5 12 Norte 26 Norte 0 -- -- 67
2018-01-15 16:00:00 10.3 17 Nordeste 26 Norte 0 -- -- 68
2018-01-15 15:00:00 10.4 10 Nordeste 28 Nordeste 0 -- -- 67
2018-01-15 14:00:00 8.1 18 Nordeste 33 Norte 0.2 -- -- 81
2018-01-15 13:00:00 8.3 12 Norte 22 Norte 0 -- -- 85
2018-01-15 12:00:00 7.5 10 Norte 19 Norte 0 -- -- 87
2018-01-15 11:00:00 5.2 9 Norte 16 Norte 0 -- -- 100
2018-01-15 10:00:00 4.2 3 Norte 12 Nordeste 0 -- -- 100
2018-01-15 09:00:00 2.1 7 Norte 13 Norte 0 -- -- 100
2018-01-15 08:00:00 1.5 4 Nordeste 14 Nordeste 0 -- -- 100
2018-01-15 07:00:00 2.3 8 Nordeste 13 Nordeste 0 -- -- 100
2018-01-15 06:00:00 2.1 7 Norte 14 Norte 0 -- -- 100
2018-01-15 05:00:00 1.9 2 Norte 6 Norte 0 -- -- 99
2018-01-15 04:00:00 1.8 3 Nordeste 5 Norte 0 -- -- 99
2018-01-15 03:00:00 2.3 0 Calma 4 Este 0.2 -- -- 98
2018-01-15 02:00:00 2.5 0 Calma 3 Nordeste 0 -- -- 98
2018-01-15 01:00:00 3.1 0 Calma 7 Este 0 -- -- 98
2018-01-15 00:00:00 3.7 2 Este 4 Sudeste 0 -- -- 97
2018-01-14 23:00:00 4.7 2 Nordeste 13 Nordeste 0.6 -- -- 95
2018-01-14 22:00:00 5.3 9 Nordeste 15 Nordeste 0.6 -- -- 96
2018-01-14 21:00:00 4.9 0 Calma 3 Este 0 -- -- 95
2018-01-14 20:00:00 5.3 4 Oeste 14 Sudoeste 1.2 -- -- 96
2018-01-14 19:00:00 5.7 15 Oeste 29 Noroeste 1 -- -- 94
2018-01-14 18:00:00 6.9 3 Nordeste 13 Nordeste 0 -- -- 92
2018-01-14 17:00:00 7.5 9 Nordeste 18 Nordeste 0 -- -- 92
2018-01-14 16:00:00 7.8 8 Noroeste 14 Oeste 0.2 -- -- 96
2018-01-14 15:00:00 7.8 11 Oeste 15 Oeste 0 -- -- 97
2018-01-14 14:00:00 7.8 10 Oeste 15 Oeste 0 -- -- 98
2018-01-14 13:00:00 7.8 9 Oeste 18 Oeste 0 -- -- 98
2018-01-14 12:00:00 7.9 0 Calma 9 Sur 0.8 -- -- 98
2018-01-14 11:00:00 7.3 8 Oeste 20 Sudeste 1 -- -- 97
2018-01-14 10:00:00 7.1 10 Sudeste 16 Sudeste 0 -- -- 98
2018-01-14 09:00:00 6.6 10 Sudeste 15 Sudeste 0 -- -- 98
2018-01-14 08:00:00 6.4 10 Sudeste 15 Sudeste 0 -- -- 99
2018-01-14 07:00:00 6.1 10 Sudeste 14 Sudeste 0 -- -- 99
2018-01-14 06:00:00 5.2 4 Sudeste 10 Sudeste 0 -- -- 99
2018-01-14 05:00:00 5.6 5 Sudeste 6 Sudeste 0 -- -- 98
2018-01-14 04:00:00 6.1 4 Sudeste 11 Sudeste 0 -- -- 97
2018-01-14 03:00:00 7.4 4 Sur 9 Sudoeste 0 -- -- 97
2018-01-14 02:00:00 7.4 0 Calma 4 Este 0 -- -- 98
2018-01-14 01:00:00 7.5 3 Sur 5 Este 0 -- -- 98
2018-01-14 00:00:00 7.5 0 Calma 5 Sur 0 -- -- 98
2018-01-13 23:00:00 7.4 0 Calma 8 Sudoeste 0 -- -- 98
2018-01-13 22:00:00 7.4 5 Sudoeste 13 Sudoeste 0 -- -- 98
2018-01-13 21:00:00 7.8 5 Sudoeste 12 Sudoeste 0 -- -- 97
2018-01-13 20:00:00 8 4 Sur 14 Sur 0 -- -- 96
2018-01-13 19:00:00 8.4 8 Sur 16 Sudoeste 0 -- -- 94
2018-01-13 18:00:00 8 8 Sudeste 18 Sudeste 0 -- -- 93
2018-01-13 17:00:00 7.9 14 Sudeste 25 Sudeste 0.2 -- -- 93
2018-01-13 16:00:00 7.5 12 Este 18 Este 1.4 -- -- 96
2018-01-13 15:00:00 7.9 11 Noroeste 17 Sudoeste 2.2 -- -- 91
2018-01-13 14:00:00 9.6 6 Sur 12 Sur 0 -- -- 74
2018-01-13 13:00:00 9.4 7 Sur 11 Sur 0 -- -- 72
2018-01-13 12:00:00 8.9 4 Sur 12 Este 0 -- -- 70
2018-01-13 11:00:00 6.9 3 Sudeste 11 Este 0 -- -- 77
2018-01-13 10:00:00 5.8 3 Sudeste 7 Sur 0 -- -- 80
2018-01-13 09:00:00 4.8 3 Sudoeste 14 Sudeste 0 -- -- 80
2018-01-13 08:00:00 5.5 12 Sudeste 22 Sudeste 0 -- -- 75
2018-01-13 07:00:00 5.2 10 Sudeste 14 Sudeste 0 -- -- 79
2018-01-13 06:00:00 5.5 9 Sudeste 17 Sudeste 0 -- -- 77
2018-01-13 05:00:00 5.5 13 Sudeste 18 Sudeste 0 -- -- 78
2018-01-13 04:00:00 5.2 3 Este 18 Sudeste 0 -- -- 82
2018-01-13 03:00:00 4.8 3 Este 13 Este 0 -- -- 86
2018-01-13 02:00:00 5.4 8 Este 19 Sudeste 0 -- -- 85
2018-01-13 01:00:00 5.6 3 Este 16 Sudeste 0 -- -- 88
2018-01-13 00:00:00 6 5 Sudeste 16 Sudeste 0 -- -- 88
2018-01-12 23:00:00 6.3 13 Sudeste 18 Sudeste 0 -- -- 88
2018-01-12 22:00:00 5.9 3 Sudeste 12 Este 0 -- -- 90
2018-01-12 21:00:00 5.7 4 Este 9 Nordeste 0 -- -- 88
2018-01-12 20:00:00 7 5 Nordeste 8 Nordeste 0 -- -- 84
2018-01-12 19:00:00 8.3 3 Nordeste 8 Nordeste 0 -- -- 79
2018-01-12 18:00:00 9.6 5 Norte 14 Noroeste 0 -- -- 73
2018-01-12 17:00:00 11.8 11 Noroeste 15 Noroeste 0 -- -- 65
2018-01-12 16:00:00 12.2 7 Noroeste 10 Noroeste 0 -- -- 65
2018-01-12 15:00:00 12.1 5 Oeste 9 Oeste 0 -- -- 66
2018-01-12 14:00:00 11.1 8 Noroeste 17 Oeste 0 -- -- 73
2018-01-12 13:00:00 10.7 5 Noroeste 10 Noroeste 0 -- -- 77
2018-01-12 12:00:00 9 5 Norte 13 Norte 0 -- -- 83
2018-01-12 11:00:00 6.8 3 Noroeste 8 Nordeste 0 -- -- 93
2018-01-12 10:00:00 5 0 Calma 6 Este 0 -- -- 98
2018-01-12 09:00:00 2.7 0 Calma 12 Sudeste 0 -- -- 99
2018-01-12 08:00:00 2 6 Este 13 Sudeste 0 -- -- 98
2018-01-12 07:00:00 2.2 7 Sudeste 12 Sudeste 0 -- -- 98
2018-01-12 06:00:00 1.4 2 Sudeste 9 Sudeste 0 -- -- 98
2018-01-12 05:00:00 1.9 4 Sudeste 8 Sudeste 0.2 -- -- 98
2018-01-12 04:00:00 2.4 6 Sudeste 8 Sudeste 0 -- -- 98
2018-01-12 03:00:00 3 0 Calma 5 Sudoeste 0 -- -- 97
2018-01-12 02:00:00 3.4 0 Calma 5 Sudeste 0 -- -- 96
2018-01-12 01:00:00 3.5 2 Sudeste 9 Sudeste 0 -- -- 97
2018-01-12 00:00:00 4.2 3 Sur 8 Este 0 -- -- 96
2018-01-11 23:00:00 4.3 5 Este 10 Este 0 -- -- 94
2018-01-11 22:00:00 5.3 7 Este 9 Este 0 -- -- 92
2018-01-11 21:00:00 6.7 2 Este 5 Sudeste 0 -- -- 90
2018-01-11 20:00:00 7.8 0 Calma 9 Oeste 0 -- -- 88
2018-01-11 19:00:00 9.1 6 Oeste 23 Noroeste 0.2 -- -- 86
2018-01-11 18:00:00 11.6 12 Oeste 32 Oeste 0 -- -- 75
2018-01-11 17:00:00 11.7 17 Oeste 38 Oeste 0 -- -- 77
2018-01-11 16:00:00 11.3 26 Oeste 40 Oeste 0.2 -- -- 83
2018-01-11 15:00:00 11.3 22 Oeste 32 Oeste 0 -- -- 78
2018-01-11 14:00:00 11.1 16 Oeste 26 Sudoeste 0 -- -- 77
2018-01-11 13:00:00 10.4 18 Oeste 28 Oeste 0 -- -- 80
2018-01-11 12:00:00 9 14 Oeste 23 Sudoeste 0 -- -- 87
2018-01-11 11:00:00 7.7 5 Sudoeste 12 Sudoeste 0 -- -- 94
2018-01-11 10:00:00 6.5 4 Sudeste 13 Sudeste 0 -- -- 100
2018-01-11 09:00:00 4.1 8 Sudeste 12 Sudeste 0 -- -- 99
2018-01-11 08:00:00 4.1 2 Sur 6 Sudeste 0 -- -- 98
2018-01-11 07:00:00 3.4 3 Sudeste 6 Sudeste 0 -- -- 97
2018-01-11 06:00:00 4.7 0 Calma 6 Sudoeste 0 -- -- 98
2018-01-11 05:00:00 5.5 0 Calma 9 Oeste 0 -- -- 97
2018-01-11 04:00:00 6.4 3 Oeste 10 Oeste 0 -- -- 97
2018-01-11 03:00:00 7.1 7 Oeste 12 Sudoeste 0 -- -- 96
2018-01-11 02:00:00 7.9 5 Oeste 13 Oeste 0 -- -- 94
2018-01-11 01:00:00 8.8 9 Oeste 15 Oeste 0 -- -- 94
2018-01-11 00:00:00 9.1 6 Oeste 19 Oeste 0 -- -- 94
2018-01-10 23:00:00 10.5 11 Oeste 32 Oeste 0 -- -- 95
2018-01-10 22:00:00 12.2 25 Oeste 45 Sudoeste 0 -- -- 94
2018-01-10 21:00:00 12.6 25 Sudoeste 46 Sudoeste 0 -- -- 92
2018-01-10 20:00:00 12.7 23 Sudoeste 40 Sudoeste 0 -- -- 89
2018-01-10 19:00:00 12.6 14 Sudoeste 27 Sudoeste 0 -- -- 88
2018-01-10 18:00:00 12.8 11 Sudoeste 22 Sudoeste 0 -- -- 83
2018-01-10 17:00:00 12.7 10 Sudoeste 18 Sudoeste 0 -- -- 84
2018-01-10 16:00:00 12.9 13 Sudoeste 29 Oeste 0 -- -- 85
2018-01-10 15:00:00 11.9 12 Oeste 22 Oeste 0 -- -- 87
2018-01-10 14:00:00 11.8 14 Oeste 22 Sudoeste 0 -- -- 88
2018-01-10 13:00:00 11.2 6 Sudoeste 13 Sudoeste 0 -- -- 94
2018-01-10 12:00:00 10.3 9 Sudoeste 15 Sudoeste 0 -- -- 99
2018-01-10 11:00:00 9.5 9 Oeste 15 Oeste 0 -- -- 100
2018-01-10 10:00:00 9.1 6 Sudoeste 15 Sudoeste 0 -- -- 100
2018-01-10 09:00:00 9.2 9 Oeste 28 Oeste 0 -- -- 100
2018-01-10 08:00:00 9.7 15 Oeste 24 Oeste 0 -- -- 100
2018-01-10 07:00:00 10.1 14 Oeste 24 Oeste 0 -- -- 99
2018-01-10 06:00:00 10.7 16 Oeste 30 Sudoeste 0 -- -- 99
2018-01-10 05:00:00 11 15 Sudoeste 25 Sudoeste 0.4 -- -- 98
2018-01-10 04:00:00 10.1 12 Sur 22 Sur 1.8 -- -- 98
2018-01-10 03:00:00 10 12 Sudeste 23 Sudeste 1.6 -- -- 97
2018-01-10 02:00:00 10 5 Sudoeste 25 Sudeste 3.4 -- -- 96
2018-01-10 01:00:00 10.2 15 Sudeste 29 Sudeste 0.6 -- -- 94
2018-01-10 00:00:00 9.9 13 Sudeste 28 Sudeste 0.6 -- -- 95
2018-01-09 23:00:00 9.4 16 Sudeste 24 Sudeste 0 -- -- 93
2018-01-09 22:00:00 9 13 Sudeste 22 Sudeste 0 -- -- 91
2018-01-09 21:00:00 8.1 13 Sudeste 26 Sudeste 0 -- -- 92
2018-01-09 20:00:00 8 15 Sudeste 24 Este 0.8 -- -- 92
2018-01-09 19:00:00 8.2 15 Sudeste 21 Sudeste 0.2 -- -- 89
2018-01-09 18:00:00 8.6 13 Sudeste 21 Sudeste 0 -- -- 82
2018-01-09 17:00:00 8.8 14 Sudeste 22 Sudeste 0 -- -- 81
2018-01-09 16:00:00 8.6 11 Sudeste 19 Sudeste 0.2 -- -- 86
2018-01-09 15:00:00 9.2 12 Sudeste 21 Sudeste 0 -- -- 76
2018-01-09 14:00:00 8.4 12 Sudeste 21 Sudeste 0 -- -- 83
2018-01-09 13:00:00 7.6 12 Sudeste 21 Sudeste 0 -- -- 87
2018-01-09 12:00:00 6.6 15 Sudeste 22 Sudeste 0 -- -- 90
2018-01-09 11:00:00 5.8 11 Sudeste 21 Sudeste 0 -- -- 94
2018-01-09 10:00:00 4.1 13 Sudeste 21 Sudeste 0 -- -- 97
2018-01-09 09:00:00 3.5 12 Sudeste 17 Sudeste 0 -- -- 98
2018-01-09 08:00:00 3.1 13 Sudeste 17 Sudeste 0 -- -- 98
2018-01-09 07:00:00 2.9 9 Sudeste 17 Sudeste 0.2 -- -- 97
2018-01-09 06:00:00 3.1 13 Sudeste 17 Sudeste 0 -- -- 98
2018-01-09 05:00:00 3 11 Sudeste 14 Sudeste 0 -- -- 98
2018-01-09 04:00:00 3 12 Sudeste 14 Sudeste 0 -- -- 98
2018-01-09 03:00:00 3.5 7 Sudeste 10 Sudeste 0 -- -- 97
2018-01-09 02:00:00 3.5 7 Sudeste 13 Sur 0 -- -- 97
2018-01-09 01:00:00 2.7 2 Sur 5 Sur 0 -- -- 96
2018-01-09 00:00:00 3.5 0 Calma 2 Este 0 -- -- 94
2018-01-08 23:00:00 5.4 0 Calma 3 Sudeste 0 -- -- 93
2018-01-08 22:00:00 6.3 0 Calma 8 Sudeste 0 -- -- 94
2018-01-08 21:00:00 6.4 5 Sudeste 8 Sudeste 0 -- -- 93
2018-01-08 20:00:00 6.3 0 Calma 5 Nordeste 0 -- -- 90
2018-01-08 19:00:00 7.5 3 Nordeste 6 Norte 0 -- -- 87
2018-01-08 18:00:00 8 4 Noroeste 10 Norte 0 -- -- 86
2018-01-08 17:00:00 7.8 5 Norte 16 Nordeste 0.2 -- -- 90
2018-01-08 16:00:00 8.6 6 Norte 11 Noroeste 0 -- -- 76
2018-01-08 15:00:00 8.2 3 Norte 12 Noroeste 0 -- -- 78
2018-01-08 14:00:00 8.2 3 Este 20 Este 0 -- -- 80
2018-01-08 13:00:00 6.6 12 Este 27 Este 0 -- -- 89
2018-01-08 12:00:00 5.8 18 Este 28 Este 0.4 -- -- 90
2018-01-08 11:00:00 6 11 Sudeste 22 Este 0 -- -- 86
2018-01-08 10:00:00 5.7 6 Este 15 Este 0 -- -- 88
2018-01-08 09:00:00 4.4 0 Calma 7 Nordeste 0 -- -- 95
2018-01-08 08:00:00 4.6 5 Nordeste 14 Nordeste 0 -- -- 94
2018-01-08 07:00:00 4.8 4 Nordeste 15 Este 0 -- -- 93
2018-01-08 06:00:00 4.7 9 Este 20 Este 0.2 -- -- 95
2018-01-08 05:00:00 4.6 9 Este 17 Este 0.2 -- -- 95
2018-01-08 04:00:00 4.5 13 Este 18 Nordeste 0.2 -- -- 94
2018-01-08 03:00:00 4.3 10 Este 19 Este 0.2 -- -- 95
2018-01-08 02:00:00 4.5 10 Este 15 Este 0.2 -- -- 96
2018-01-08 01:00:00 4.4 10 Este 16 Sudeste 0.6 -- -- 96
2018-01-08 00:00:00 4.5 7 Sudeste 13 Sudeste 0.8 -- -- 94
2018-01-07 23:00:00 4.5 8 Este 12 Este 0.2 -- -- 94
2018-01-07 22:00:00 4.6 8 Sudeste 14 Sudeste 0 -- -- 95
2018-01-07 21:00:00 4.7 8 Sudeste 13 Este 0 -- -- 94
2018-01-07 20:00:00 4.7 11 Este 16 Este 0 -- -- 94
2018-01-07 19:00:00 4.8 4 Sur 16 Sudoeste 0 -- -- 92
2018-01-07 18:00:00 5.1 8 Sudoeste 15 Sudoeste 0 -- -- 89
2018-01-07 17:00:00 5.4 6 Sudeste 10 Sudeste 0 -- -- 88
2018-01-07 16:00:00 5.4 8 Sudeste 12 Sudeste 0.2 -- -- 88
2018-01-07 15:00:00 5.2 8 Sudeste 14 Sudeste 0 -- -- 85
2018-01-07 14:00:00 5.1 9 Sudeste 15 Sudeste 0 -- -- 86
2018-01-07 13:00:00 4.5 6 Sudeste 15 Sudeste 0 -- -- 89
2018-01-07 12:00:00 3.8 10 Sudeste 18 Sudeste 0 -- -- 88
2018-01-07 11:00:00 3 11 Sudeste 18 Sudeste 0 -- -- 92
2018-01-07 10:00:00 3 7 Sur 18 Sur 0.2 -- -- 91
2018-01-07 09:00:00 2.5 6 Sur 13 Sur 0 -- -- 90
2018-01-07 08:00:00 1.9 5 Sur 13 Sur 0 -- -- 89
2018-01-07 07:00:00 1.3 8 Sudeste 11 Sudeste 0 -- -- 91
2018-01-07 06:00:00 2.2 10 Sur 13 Sur 0 -- -- 88
2018-01-07 05:00:00 1.1 2 Sudeste 9 Sur 0 -- -- 92
2018-01-07 04:00:00 2.3 5 Sur 14 Sur 0 -- -- 88
2018-01-07 03:00:00 1.9 0 Calma 8 Sudoeste 0 -- -- 87
2018-01-07 02:00:00 2.7 3 Sudoeste 11 Oeste 0 -- -- 85
2018-01-07 01:00:00 3.3 6 Oeste 14 Oeste 0 -- -- 82
2018-01-07 00:00:00 3.8 5 Oeste 14 Sudoeste 0 -- -- 82
2018-01-06 23:00:00 4.7 7 Sudoeste 14 Oeste 0 -- -- 77
2018-01-06 22:00:00 5.2 8 Sudoeste 18 Oeste 0 -- -- 75
2018-01-06 21:00:00 7.1 11 Oeste 17 Oeste 0 -- -- 72
2018-01-06 20:00:00 6.8 7 Oeste 17 Oeste 0 -- -- 76
2018-01-06 19:00:00 7 8 Sudoeste 25 Oeste 0 -- -- 75
2018-01-06 18:00:00 8.6 11 Sudoeste 41 Oeste 0 -- -- 69
2018-01-06 17:00:00 9.6 24 Oeste 36 Oeste 0 -- -- 65
2018-01-06 16:00:00 9.1 15 Sudoeste 30 Oeste 0 -- -- 78
2018-01-06 15:00:00 8.4 18 Oeste 28 Oeste 0 -- -- 85
2018-01-06 14:00:00 7 11 Oeste 27 Oeste 0.4 -- -- 99
2018-01-06 13:00:00 5.9 14 Sudoeste 30 Oeste 1.2 -- -- 99
2018-01-06 12:00:00 5.5 12 Oeste 20 Oeste 0 -- -- 98
2018-01-06 11:00:00 5.3 0 Calma 12 Noroeste 1 -- -- 98
2018-01-06 10:00:00 5 10 Noroeste 29 Noroeste 3 -- -- 97
2018-01-06 09:00:00 5.5 11 Norte 31 Norte 2.6 -- -- 98
2018-01-06 08:00:00 6.2 16 Norte 28 Norte 4 -- -- 98
2018-01-06 07:00:00 7.1 3 Norte 7 Nordeste 2 -- -- 97
2018-01-06 06:00:00 7.1 2 Nordeste 8 Oeste 4.4 -- -- 97
2018-01-06 05:00:00 7.2 4 Oeste 18 Oeste 4 -- -- 97
2018-01-06 04:00:00 9.2 15 Sudoeste 38 Sudoeste 12.4 -- -- 95
2018-01-06 03:00:00 10.8 15 Sur 32 Sur 1.2 -- -- 90
2018-01-06 02:00:00 11.4 16 Sudeste 33 Sudeste 0 -- -- 82
2018-01-06 01:00:00 11.7 17 Sudeste 29 Sur 0 -- -- 76
2018-01-06 00:00:00 11.4 13 Sudeste 26 Sur 0.2 -- -- 79
2018-01-05 23:00:00 12.1 13 Sudeste 24 Sudeste 0 -- -- 71
2018-01-05 22:00:00 12.7 15 Sudeste 30 Sudeste 0 -- -- 68
2018-01-05 21:00:00 12.7 12 Sur 22 Sur 0 -- -- 68
2018-01-05 20:00:00 13.1 12 Sur 21 Sur 0 -- -- 71
2018-01-05 19:00:00 12.8 11 Sur 29 Sudoeste 0 -- -- 77
2018-01-05 18:00:00 13.4 13 Sudoeste 27 Sudoeste 0 -- -- 73
2018-01-05 17:00:00 13.7 8 Sur 16 Sudoeste 0 -- -- 73
2018-01-05 16:00:00 13.6 8 Sur 16 Sudeste 0 -- -- 79
2018-01-05 15:00:00 12.8 9 Sudeste 16 Sudeste 0 -- -- 81
2018-01-05 14:00:00 12.8 10 Sur 17 Sur 0 -- -- 81
2018-01-05 13:00:00 12.4 10 Sudeste 16 Sudeste 0 -- -- 82
2018-01-05 12:00:00 11.9 8 Sudeste 11 Sudeste 0 -- -- 87
2018-01-05 11:00:00 11.5 4 Sur 17 Sudoeste 0 -- -- 91
2018-01-05 10:00:00 11.3 9 Sudoeste 25 Sudoeste 0 -- -- 96
2018-01-05 09:00:00 10.9 6 Sudeste 15 Sudoeste 0 -- -- 97
2018-01-05 08:00:00 11.1 8 Sur 12 Sur 0 -- -- 96
2018-01-05 07:00:00 11.1 5 Sur 10 Sur 0 -- -- 97
2018-01-05 06:00:00 11.1 6 Sur 10 Sur 0 -- -- 96
2018-01-05 05:00:00 11.2 5 Sur 10 Sur 0 -- -- 96
2018-01-05 04:00:00 11 2 Sudoeste 4 Sudoeste 0 -- -- 95
2018-01-05 03:00:00 11 0 Calma 2 Este 0 -- -- 95
2018-01-05 02:00:00 11 0 Calma 6 Sudeste 0 -- -- 94
2018-01-05 01:00:00 11.2 4 Sudeste 12 Sudeste 0 -- -- 94
2018-01-05 00:00:00 11.3 4 Sudeste 9 Sudeste 0 -- -- 94
2018-01-04 23:00:00 11.6 4 Sudeste 6 Sudeste 0 -- -- 93
2018-01-04 22:00:00 11.6 0 Calma 5 Sur 0 -- -- 93
2018-01-04 21:00:00 11.8 3 Sudeste 5 Sudeste 0 -- -- 92
2018-01-04 20:00:00 11.9 0 Calma 4 Noroeste 0 -- -- 91
2018-01-04 19:00:00 11.9 3 Oeste 8 Sudoeste 0 -- -- 91
2018-01-04 18:00:00 12.5 4 Sudoeste 6 Oeste 0 -- -- 88
2018-01-04 17:00:00 12.8 3 Sudoeste 9 Sudoeste 0 -- -- 86
2018-01-04 16:00:00 12.9 4 Oeste 13 Noroeste 0 -- -- 85
2018-01-04 15:00:00 13.1 8 Noroeste 15 Norte 0 -- -- 84
2018-01-04 14:00:00 13.1 8 Norte 16 Nordeste 0 -- -- 84
2018-01-04 13:00:00 11.8 0 Calma 9 Sudeste 0 -- -- 87
2018-01-04 12:00:00 10.3 6 Sudeste 12 Sudeste 0 -- -- 89
2018-01-04 11:00:00 9.1 9 Sudeste 14 Sudeste 0 -- -- 91
2018-01-04 10:00:00 9.4 8 Sudeste 12 Sudeste 0 -- -- 89
2018-01-04 09:00:00 9.2 4 Sudeste 9 Sudeste 0 -- -- 91
2018-01-04 08:00:00 9.4 3 Sudoeste 9 Este 0 -- -- 90
2018-01-04 07:00:00 9.6 4 Sudeste 10 Este 0 -- -- 90
2018-01-04 06:00:00 9.6 5 Este 13 Sudeste 0 -- -- 91
2018-01-04 05:00:00 10.2 4 Este 11 Este 0 -- -- 89
2018-01-04 04:00:00 10.6 9 Este 18 Este 0 -- -- 88
2018-01-04 03:00:00 11 12 Este 22 Nordeste 0 -- -- 86
2018-01-04 02:00:00 10.6 12 Nordeste 19 Nordeste 0 -- -- 90
2018-01-04 01:00:00 8.9 2 Norte 6 Nordeste 0 -- -- 96
2018-01-04 00:00:00 7.5 0 Calma 7 Este 0 -- -- 96
2018-01-03 23:00:00 7.7 4 Este 9 Este 0 -- -- 94
2018-01-03 22:00:00 9.1 0 Calma 4 Este 0 -- -- 89
2018-01-03 21:00:00 11.2 0 Calma 4 Norte 0 -- -- 85
2018-01-03 20:00:00 11.9 3 Norte 13 Sudeste 0 -- -- 84
2018-01-03 19:00:00 13.1 4 Este 14 Nordeste 0 -- -- 80
2018-01-03 18:00:00 13.8 7 Nordeste 22 Nordeste 0 -- -- 77
2018-01-03 17:00:00 13.9 13 Nordeste 23 Nordeste 0 -- -- 76
2018-01-03 16:00:00 14 10 Norte 22 Norte 0 -- -- 76
2018-01-03 15:00:00 14.1 8 Norte 20 Nordeste 0 -- -- 75
2018-01-03 14:00:00 13.9 12 Nordeste 20 Norte 0 -- -- 78
2018-01-03 13:00:00 13.2 6 Norte 15 Norte 0 -- -- 80
2018-01-03 12:00:00 12.7 6 Norte 15 Nordeste 0 -- -- 80
2018-01-03 11:00:00 11.3 2 Noroeste 6 Sur 0 -- -- 86
2018-01-03 10:00:00 10.9 2 Sur 5 Oeste 0 -- -- 89
2018-01-03 09:00:00 10.7 0 Calma 11 Nordeste 0 -- -- 89
2018-01-03 08:00:00 11.3 8 Nordeste 15 Nordeste 0 -- -- 88
2018-01-03 07:00:00 11.1 4 Nordeste 13 Nordeste 0 -- -- 87
2018-01-03 06:00:00 11 8 Nordeste 19 Nordeste 0 -- -- 87
2018-01-03 05:00:00 10.6 5 Nordeste 10 Nordeste 0 -- -- 90
2018-01-03 04:00:00 10.2 3 Nordeste 6 Nordeste 0 -- -- 90
2018-01-03 03:00:00 9.3 2 Este 8 Norte 0 -- -- 92
2018-01-03 02:00:00 8.5 0 Calma 3 Este 0 -- -- 94
2018-01-03 01:00:00 7.6 0 Calma 5 Este 0 -- -- 94
2018-01-03 00:00:00 6.8 4 Nordeste 6 Este 0 -- -- 94
2018-01-02 23:00:00 6.5 0 Calma 5 Este 0 -- -- 92
2018-01-02 22:00:00 6.8 0 Calma 6 Este 0 -- -- 93
2018-01-02 21:00:00 7.5 4 Este 6 Este 0 -- -- 89
2018-01-02 20:00:00 7.9 2 Este 8 Sudeste 0 -- -- 87
2018-01-02 19:00:00 10.3 2 Este 7 Nordeste 0 -- -- 79
2018-01-02 18:00:00 12.3 4 Nordeste 17 Norte 0 -- -- 71
2018-01-02 17:00:00 13.2 9 Norte 24 Norte 0 -- -- 67
2018-01-02 16:00:00 13.5 13 Norte 26 Norte 0 -- -- 66
2018-01-02 15:00:00 13.7 9 Norte 22 Nordeste 0 -- -- 66
2018-01-02 14:00:00 13.4 9 Norte 20 Noroeste 0 -- -- 69
2018-01-02 13:00:00 12.6 6 Norte 13 Norte 0 -- -- 69
2018-01-02 12:00:00 10.6 4 Oeste 8 Norte 0 -- -- 72
2018-01-02 11:00:00 8.9 4 Oeste 6 Oeste 0 -- -- 85
2018-01-02 10:00:00 6.1 2 Este 5 Este 0 -- -- 96
2018-01-02 09:00:00 2.2 0 Calma 6 Este 0 -- -- 96
2018-01-02 08:00:00 2.6 5 Este 8 Este 0 -- -- 95
2018-01-02 07:00:00 3 4 Este 7 Este 0 -- -- 94
2018-01-02 06:00:00 2.9 2 Este 6 Sudeste 0 -- -- 95
2018-01-02 05:00:00 2.9 6 Este 8 Este 0 -- -- 94
2018-01-02 04:00:00 3.3 0 Calma 9 Este 0 -- -- 92
2018-01-02 03:00:00 3.6 6 Sudeste 10 Sudeste 0 -- -- 93
2018-01-02 02:00:00 3.9 6 Este 10 Este 0 -- -- 90
2018-01-02 01:00:00 4.3 8 Este 11 Este 0 -- -- 89
2018-01-02 00:00:00 4.5 3 Sudeste 11 Sudeste 0 -- -- 89
2018-01-01 23:00:00 5 3 Este 8 Este 0 -- -- 89
2018-01-01 22:00:00 6 10 Sudeste 13 Este 0 -- -- 86
2018-01-01 21:00:00 6.6 5 Este 6 Este 0 -- -- 82
2018-01-01 20:00:00 7 3 Este 7 Este 0 -- -- 84
2018-01-01 19:00:00 9 2 Sudeste 8 Este 0 -- -- 76
2018-01-01 18:00:00 12.6 3 Sudoeste 9 Noroeste 0 -- -- 57
2018-01-01 17:00:00 13.9 5 Noroeste 20 Noroeste 0 -- -- 53
2018-01-01 16:00:00 14.1 10 Noroeste 17 Noroeste 0 -- -- 62
2018-01-01 15:00:00 13.8 7 Oeste 13 Noroeste 0 -- -- 65
2018-01-01 14:00:00 13.1 11 Noroeste 16 Noroeste 0 -- -- 67
2018-01-01 13:00:00 12.5 5 Oeste 9 Noroeste 0 -- -- 68
2018-01-01 12:00:00 11.6 3 Sur 16 Este 0 -- -- 72
2018-01-01 11:00:00 9.2 11 Sudeste 18 Sudeste 0 -- -- 86
2018-01-01 10:00:00 6.9 4 Este 9 Nordeste 0 -- -- 98
2018-01-01 09:00:00 3 5 Este 7 Este 0 -- -- 98
2018-01-01 08:00:00 3.5 3 Sudeste 6 Este 0 -- -- 98
2018-01-01 07:00:00 4.5 0 Calma 9 Este 0 -- -- 97
2018-01-01 06:00:00 4.6 9 Este 11 Este 0 -- -- 98
2018-01-01 05:00:00 5.6 5 Sudeste 13 Sudeste 0 -- -- 97
2018-01-01 04:00:00 6.5 4 Sudeste 10 Sudeste 0 -- -- 96
2018-01-01 03:00:00 7 4 Este 8 Nordeste 0 -- -- 96
2018-01-01 02:00:00 7.6 3 Este 8 Este 0 -- -- 92
2018-01-01 01:00:00 8.8 2 Sudoeste 7 Oeste 0 -- -- 93
2018-01-01 00:00:00 10 3 Norte 16 Noroeste 0 -- -- 91
2017-12-31 23:00:00 11.4 11 Noroeste 22 Noroeste 0 -- -- 94
2017-12-31 22:00:00 12.6 15 Oeste 31 Sudoeste 0 -- -- 93
2017-12-31 21:00:00 13.3 18 Sudoeste 31 Sudoeste 0 -- -- 90
2017-12-31 20:00:00 13.4 12 Sudoeste 21 Sudoeste 0 -- -- 86
2017-12-31 19:00:00 13.5 14 Sudoeste 22 Sudoeste 0 -- -- 84
2017-12-31 18:00:00 13.7 14 Sudoeste 22 Sudoeste 0 -- -- 80
2017-12-31 17:00:00 14.2 10 Sudoeste 20 Sudoeste 0 -- -- 84
2017-12-31 16:00:00 13.5 14 Sudoeste 22 Oeste 0 -- -- 88
2017-12-31 15:00:00 13.2 14 Oeste 23 Sudoeste 0 -- -- 90
2017-12-31 14:00:00 14.1 15 Sudoeste 24 Sudoeste 0 -- -- 85
2017-12-31 13:00:00 13 8 Sur 15 Sur 0 -- -- 89
2017-12-31 12:00:00 12.5 9 Sur 14 Sur 0 -- -- 90
2017-12-31 11:00:00 11.8 7 Sur 14 Sur 0 -- -- 92
2017-12-31 10:00:00 11 7 Sur 13 Sur 0 -- -- 95
2017-12-31 09:00:00 10.3 8 Sur 15 Sur 0 -- -- 95
2017-12-31 08:00:00 8.5 5 Este 9 Este 0 -- -- 95
2017-12-31 07:00:00 8.4 10 Sudeste 17 Sudeste 0 -- -- 95
2017-12-31 06:00:00 8.9 14 Sudeste 17 Sudeste 0 -- -- 93
2017-12-31 05:00:00 9.4 12 Sudeste 18 Sudeste 0 -- -- 92
2017-12-31 04:00:00 9.7 15 Sudeste 21 Sudeste 0 -- -- 91
2017-12-31 03:00:00 10.1 12 Sudeste 18 Sudeste 0 -- -- 92
2017-12-31 02:00:00 9.8 13 Sudeste 17 Sudeste 0 -- -- 93
2017-12-31 01:00:00 10.5 3 Sudeste 17 Sudeste 0 -- -- 92